sensor_id;sensor_type;location;lat;lon;timestamp;pressure;altitude;pressure_sealevel;temperature;humidity
65010;BME280;51556;50.002;22.014;2023-09-07T00:01:42;100154.94;;;14.91;72.64
65010;BME280;51556;50.002;22.014;2023-09-07T00:04:07;100150.89;;;14.90;72.45
65010;BME280;51556;50.002;22.014;2023-09-07T00:06:33;100149.13;;;14.90;72.67
65010;BME280;51556;50.002;22.014;2023-09-07T00:08:59;100151.94;;;14.90;72.58
65010;BME280;51556;50.002;22.014;2023-09-07T00:11:25;100151.65;;;14.94;72.44
65010;BME280;51556;50.002;22.014;2023-09-07T00:13:50;100149.31;;;14.95;72.36
65010;BME280;51556;50.002;22.014;2023-09-07T00:16:16;100155.48;;;14.96;72.29
65010;BME280;51556;50.002;22.014;2023-09-07T00:18:41;100155.80;;;14.97;72.16
65010;BME280;51556;50.002;22.014;2023-09-07T00:21:06;100152.27;;;14.97;72.00
65010;BME280;51556;50.002;22.014;2023-09-07T00:23:32;100153.70;;;14.96;72.20
65010;BME280;51556;50.002;22.014;2023-09-07T00:25:57;100155.66;;;14.97;71.90
65010;BME280;51556;50.002;22.014;2023-09-07T00:28:23;100157.84;;;14.95;71.82
65010;BME280;51556;50.002;22.014;2023-09-07T00:30:48;100154.99;;;14.95;71.99
65010;BME280;51556;50.002;22.014;2023-09-07T00:33:13;100155.02;;;14.94;72.05
65010;BME280;51556;50.002;22.014;2023-09-07T00:35:39;100152.05;;;14.93;72.14
65010;BME280;51556;50.002;22.014;2023-09-07T00:38:04;100153.65;;;14.92;72.04
65010;BME280;51556;50.002;22.014;2023-09-07T00:40:30;100152.27;;;14.92;72.13
65010;BME280;51556;50.002;22.014;2023-09-07T00:42:55;100155.45;;;14.92;71.99
65010;BME280;51556;50.002;22.014;2023-09-07T00:45:21;100155.43;;;14.92;72.11
65010;BME280;51556;50.002;22.014;2023-09-07T00:47:47;100162.27;;;14.95;71.64
65010;BME280;51556;50.002;22.014;2023-09-07T00:50:12;100162.30;;;14.94;71.57
65010;BME280;51556;50.002;22.014;2023-09-07T00:52:41;100161.96;;;14.93;71.66
65010;BME280;51556;50.002;22.014;2023-09-07T00:55:07;100157.69;;;14.94;71.72
65010;BME280;51556;50.002;22.014;2023-09-07T00:57:33;100159.11;;;14.94;71.52
65010;BME280;51556;50.002;22.014;2023-09-07T00:59:59;100161.31;;;14.91;71.36
65010;BME280;51556;50.002;22.014;2023-09-07T01:02:24;100162.09;;;14.89;71.31
65010;BME280;51556;50.002;22.014;2023-09-07T01:04:51;100158.55;;;14.89;71.23
65010;BME280;51556;50.002;22.014;2023-09-07T01:07:19;100155.83;;;14.85;71.23
65010;BME280;51556;50.002;22.014;2023-09-07T01:09:49;100155.63;;;14.81;71.45
65010;BME280;51556;50.002;22.014;2023-09-07T01:12:16;100152.09;;;14.81;71.71
65010;BME280;51556;50.002;22.014;2023-09-07T01:14:42;100147.80;;;14.76;71.33
65010;BME280;51556;50.002;22.014;2023-09-07T01:17:08;100149.14;;;14.72;71.70
65010;BME280;51556;50.002;22.014;2023-09-07T01:19:34;100146.78;;;14.68;71.52
65010;BME280;51556;50.002;22.014;2023-09-07T01:22:00;100145.16;;;14.63;71.63
65010;BME280;51556;50.002;22.014;2023-09-07T01:24:26;100146.86;;;14.59;71.57
65010;BME280;51556;50.002;22.014;2023-09-07T01:26:55;100146.44;;;14.55;71.63
65010;BME280;51556;50.002;22.014;2023-09-07T01:29:21;100143.33;;;14.52;71.88
65010;BME280;51556;50.002;22.014;2023-09-07T01:31:47;100144.94;;;14.52;71.61
65010;BME280;51556;50.002;22.014;2023-09-07T01:34:13;100147.30;;;14.50;71.91
65010;BME280;51556;50.002;22.014;2023-09-07T01:36:38;100148.23;;;14.49;71.55
65010;BME280;51556;50.002;22.014;2023-09-07T01:39:04;100145.48;;;14.46;71.77
65010;BME280;51556;50.002;22.014;2023-09-07T01:41:32;100144.73;;;14.42;71.73
65010;BME280;51556;50.002;22.014;2023-09-07T01:43:58;100145.36;;;14.37;71.69
65010;BME280;51556;50.002;22.014;2023-09-07T01:46:24;100145.23;;;14.35;72.10
65010;BME280;51556;50.002;22.014;2023-09-07T01:48:49;100145.73;;;14.36;72.05
65010;BME280;51556;50.002;22.014;2023-09-07T01:51:15;100148.03;;;14.37;71.93
65010;BME280;51556;50.002;22.014;2023-09-07T01:53:40;100147.36;;;14.35;71.76
65010;BME280;51556;50.002;22.014;2023-09-07T01:56:05;100149.75;;;14.32;71.84
65010;BME280;51556;50.002;22.014;2023-09-07T01:58:31;100147.41;;;14.27;71.85
65010;BME280;51556;50.002;22.014;2023-09-07T02:00:58;100145.40;;;14.23;72.27
65010;BME280;51556;50.002;22.014;2023-09-07T02:03:24;100147.84;;;14.18;72.15
65010;BME280;51556;50.002;22.014;2023-09-07T02:05:50;100144.75;;;14.14;72.06
65010;BME280;51556;50.002;22.014;2023-09-07T02:08:15;100145.59;;;14.10;72.12
65010;BME280;51556;50.002;22.014;2023-09-07T02:10:41;100147.05;;;14.02;72.18
65010;BME280;51556;50.002;22.014;2023-09-07T02:13:06;100143.84;;;13.96;72.36
65010;BME280;51556;50.002;22.014;2023-09-07T02:15:31;100140.42;;;13.91;72.52
65010;BME280;51556;50.002;22.014;2023-09-07T02:17:57;100137.83;;;13.89;72.64
65010;BME280;51556;50.002;22.014;2023-09-07T02:20:22;100139.21;;;13.90;72.78
65010;BME280;51556;50.002;22.014;2023-09-07T02:22:48;100140.24;;;13.91;72.55
65010;BME280;51556;50.002;22.014;2023-09-07T02:25:13;100136.14;;;13.93;72.63
65010;BME280;51556;50.002;22.014;2023-09-07T02:27:38;100137.03;;;13.92;72.51
65010;BME280;51556;50.002;22.014;2023-09-07T02:30:05;100135.60;;;13.93;72.60
65010;BME280;51556;50.002;22.014;2023-09-07T02:32:31;100135.29;;;13.92;72.68
65010;BME280;51556;50.002;22.014;2023-09-07T02:34:57;100133.89;;;13.91;72.66
65010;BME280;51556;50.002;22.014;2023-09-07T02:37:23;100137.65;;;13.90;72.36
65010;BME280;51556;50.002;22.014;2023-09-07T02:39:48;100135.86;;;13.90;72.62
65010;BME280;51556;50.002;22.014;2023-09-07T02:42:14;100134.40;;;13.92;72.55
65010;BME280;51556;50.002;22.014;2023-09-07T02:44:39;100131.25;;;13.90;72.44
65010;BME280;51556;50.002;22.014;2023-09-07T02:47:04;100135.30;;;13.92;72.34
65010;BME280;51556;50.002;22.014;2023-09-07T02:49:30;100134.41;;;13.91;72.45
65010;BME280;51556;50.002;22.014;2023-09-07T02:51:56;100133.89;;;13.91;72.39
65010;BME280;51556;50.002;22.014;2023-09-07T02:54:22;100134.80;;;13.90;72.09
65010;BME280;51556;50.002;22.014;2023-09-07T02:56:47;100133.55;;;13.90;72.06
65010;BME280;51556;50.002;22.014;2023-09-07T02:59:13;100135.53;;;13.89;72.24
65010;BME280;51556;50.002;22.014;2023-09-07T03:01:39;100133.14;;;13.86;72.09
65010;BME280;51556;50.002;22.014;2023-09-07T03:04:05;100131.29;;;13.82;72.11
65010;BME280;51556;50.002;22.014;2023-09-07T03:06:31;100129.04;;;13.80;72.03
65010;BME280;51556;50.002;22.014;2023-09-07T03:08:56;100130.17;;;13.78;72.09
65010;BME280;51556;50.002;22.014;2023-09-07T03:11:22;100128.30;;;13.75;71.91
65010;BME280;51556;50.002;22.014;2023-09-07T03:13:47;100131.85;;;13.75;72.01
65010;BME280;51556;50.002;22.014;2023-09-07T03:16:13;100136.70;;;13.72;72.15
65010;BME280;51556;50.002;22.014;2023-09-07T03:18:38;100142.95;;;13.70;72.00
65010;BME280;51556;50.002;22.014;2023-09-07T03:21:04;100142.77;;;13.70;72.11
65010;BME280;51556;50.002;22.014;2023-09-07T03:23:30;100148.10;;;13.70;71.90
65010;BME280;51556;50.002;22.014;2023-09-07T03:25:57;100147.92;;;13.69;72.13
65010;BME280;51556;50.002;22.014;2023-09-07T03:28:23;100148.67;;;13.68;72.28
65010;BME280;51556;50.002;22.014;2023-09-07T03:30:50;100145.35;;;13.66;72.23
65010;BME280;51556;50.002;22.014;2023-09-07T03:33:16;100145.34;;;13.67;71.97
65010;BME280;51556;50.002;22.014;2023-09-07T03:35:41;100148.36;;;13.66;71.86
65010;BME280;51556;50.002;22.014;2023-09-07T03:38:07;100150.08;;;13.68;71.92
65010;BME280;51556;50.002;22.014;2023-09-07T03:40:32;100147.39;;;13.70;71.78
65010;BME280;51556;50.002;22.014;2023-09-07T03:42:57;100148.27;;;13.70;71.68
65010;BME280;51556;50.002;22.014;2023-09-07T03:45:23;100147.75;;;13.69;71.85
65010;BME280;51556;50.002;22.014;2023-09-07T03:47:48;100147.70;;;13.64;72.00
65010;BME280;51556;50.002;22.014;2023-09-07T03:50:14;100150.81;;;13.60;72.23
65010;BME280;51556;50.002;22.014;2023-09-07T03:52:39;100148.52;;;13.59;72.00
65010;BME280;51556;50.002;22.014;2023-09-07T03:55:05;100151.74;;;13.58;72.19
65010;BME280;51556;50.002;22.014;2023-09-07T03:57:30;100154.39;;;13.58;72.28
65010;BME280;51556;50.002;22.014;2023-09-07T03:59:56;100159.70;;;13.58;72.30
65010;BME280;51556;50.002;22.014;2023-09-07T04:02:23;100159.02;;;13.57;72.02
65010;BME280;51556;50.002;22.014;2023-09-07T04:04:53;100160.50;;;13.54;72.56
65010;BME280;51556;50.002;22.014;2023-09-07T04:07:19;100164.16;;;13.50;72.68
65010;BME280;51556;50.002;22.014;2023-09-07T04:09:45;100167.16;;;13.49;72.57
65010;BME280;51556;50.002;22.014;2023-09-07T04:12:10;100165.06;;;13.49;72.50
65010;BME280;51556;50.002;22.014;2023-09-07T04:14:36;100164.25;;;13.46;72.69
65010;BME280;51556;50.002;22.014;2023-09-07T04:17:02;100164.15;;;13.42;72.58
65010;BME280;51556;50.002;22.014;2023-09-07T04:19:27;100169.16;;;13.39;72.78
65010;BME280;51556;50.002;22.014;2023-09-07T04:21:53;100166.63;;;13.36;72.96
65010;BME280;51556;50.002;22.014;2023-09-07T04:24:18;100171.35;;;13.30;73.05
65010;BME280;51556;50.002;22.014;2023-09-07T04:26:43;100171.79;;;13.27;73.24
65010;BME280;51556;50.002;22.014;2023-09-07T04:29:09;100171.78;;;13.27;73.19
65010;BME280;51556;50.002;22.014;2023-09-07T04:31:35;100176.36;;;13.28;73.63
65010;BME280;51556;50.002;22.014;2023-09-07T04:34:01;100176.01;;;13.28;73.34
65010;BME280;51556;50.002;22.014;2023-09-07T04:36:28;100178.98;;;13.30;73.42
65010;BME280;51556;50.002;22.014;2023-09-07T04:38:53;100181.83;;;13.29;73.86
65010;BME280;51556;50.002;22.014;2023-09-07T04:41:19;100179.48;;;13.31;73.58
65010;BME280;51556;50.002;22.014;2023-09-07T04:43:44;100177.16;;;13.31;73.90
65010;BME280;51556;50.002;22.014;2023-09-07T04:46:11;100180.19;;;13.30;73.79
65010;BME280;51556;50.002;22.014;2023-09-07T04:48:36;100181.84;;;13.28;73.96
65010;BME280;51556;50.002;22.014;2023-09-07T04:54:02;100182.63;;;13.32;73.99
65010;BME280;51556;50.002;22.014;2023-09-07T04:56:28;100186.63;;;13.28;74.28
65010;BME280;51556;50.002;22.014;2023-09-07T04:58:57;100187.10;;;13.30;74.23
65010;BME280;51556;50.002;22.014;2023-09-07T05:01:26;100185.11;;;13.32;74.06
65010;BME280;51556;50.002;22.014;2023-09-07T05:03:51;100188.48;;;13.38;74.38
65010;BME280;51556;50.002;22.014;2023-09-07T05:06:17;100188.90;;;13.43;74.51
65010;BME280;51556;50.002;22.014;2023-09-07T05:08:42;100186.45;;;13.42;74.29
65010;BME280;51556;50.002;22.014;2023-09-07T05:11:07;100192.43;;;13.43;74.75
65010;BME280;51556;50.002;22.014;2023-09-07T05:13:33;100193.25;;;13.46;74.67
65010;BME280;51556;50.002;22.014;2023-09-07T05:15:59;100196.90;;;13.49;74.67
65010;BME280;51556;50.002;22.014;2023-09-07T05:18:29;100198.07;;;13.51;74.77
65010;BME280;51556;50.002;22.014;2023-09-07T05:20:55;100196.41;;;13.55;75.28
65010;BME280;51556;50.002;22.014;2023-09-07T05:23:21;100196.79;;;13.61;75.39
65010;BME280;51556;50.002;22.014;2023-09-07T05:25:54;100195.73;;;13.68;75.54
65010;BME280;51556;50.002;22.014;2023-09-07T05:28:21;100200.08;;;13.71;75.21
65010;BME280;51556;50.002;22.014;2023-09-07T05:30:47;100203.92;;;13.73;75.33
65010;BME280;51556;50.002;22.014;2023-09-07T05:33:14;100209.14;;;13.75;75.56
65010;BME280;51556;50.002;22.014;2023-09-07T05:35:40;100205.02;;;13.78;75.70
65010;BME280;51556;50.002;22.014;2023-09-07T05:38:07;100204.44;;;13.87;76.02
65010;BME280;51556;50.002;22.014;2023-09-07T05:40:40;100202.54;;;13.92;76.34
65010;BME280;51556;50.002;22.014;2023-09-07T05:43:06;100203.52;;;13.95;76.49
65010;BME280;51556;50.002;22.014;2023-09-07T05:45:41;100210.34;;;13.99;76.43
65010;BME280;51556;50.002;22.014;2023-09-07T05:48:07;100212.52;;;14.03;76.69
65010;BME280;51556;50.002;22.014;2023-09-07T05:50:37;100212.79;;;14.07;76.75
65010;BME280;51556;50.002;22.014;2023-09-07T05:53:03;100215.27;;;14.12;76.99
65010;BME280;51556;50.002;22.014;2023-09-07T05:55:29;100218.30;;;14.18;76.93
65010;BME280;51556;50.002;22.014;2023-09-07T05:57:55;100219.27;;;14.29;77.01
65010;BME280;51556;50.002;22.014;2023-09-07T06:00:21;100216.66;;;14.41;77.46
65010;BME280;51556;50.002;22.014;2023-09-07T06:02:49;100218.44;;;14.47;77.64
65010;BME280;51556;50.002;22.014;2023-09-07T06:05:14;100222.45;;;14.55;77.47
65010;BME280;51556;50.002;22.014;2023-09-07T06:07:40;100222.15;;;14.66;77.58
65010;BME280;51556;50.002;22.014;2023-09-07T06:10:05;100221.04;;;14.74;77.48
65010;BME280;51556;50.002;22.014;2023-09-07T06:12:32;100227.02;;;14.82;77.49
65010;BME280;51556;50.002;22.014;2023-09-07T06:14:59;100226.52;;;14.92;77.43
65010;BME280;51556;50.002;22.014;2023-09-07T06:17:24;100226.98;;;15.01;77.42
65010;BME280;51556;50.002;22.014;2023-09-07T06:19:49;100227.98;;;15.09;77.46
65010;BME280;51556;50.002;22.014;2023-09-07T06:22:15;100232.55;;;15.16;77.46
65010;BME280;51556;50.002;22.014;2023-09-07T06:24:40;100229.84;;;15.23;77.38
65010;BME280;51556;50.002;22.014;2023-09-07T06:27:05;100228.14;;;15.32;77.52
65010;BME280;51556;50.002;22.014;2023-09-07T06:29:31;100226.46;;;15.41;77.53
65010;BME280;51556;50.002;22.014;2023-09-07T06:31:56;100229.56;;;15.50;77.37
65010;BME280;51556;50.002;22.014;2023-09-07T06:34:22;100229.01;;;15.56;77.13
65010;BME280;51556;50.002;22.014;2023-09-07T06:36:47;100229.23;;;15.66;76.81
65010;BME280;51556;50.002;22.014;2023-09-07T06:39:13;100230.80;;;15.77;76.68
65010;BME280;51556;50.002;22.014;2023-09-07T06:41:38;100230.59;;;15.84;76.49
65010;BME280;51556;50.002;22.014;2023-09-07T06:44:04;100227.36;;;15.95;76.39
65010;BME280;51556;50.002;22.014;2023-09-07T06:46:29;100233.23;;;16.05;76.19
65010;BME280;51556;50.002;22.014;2023-09-07T06:48:55;100227.86;;;16.12;75.90
65010;BME280;51556;50.002;22.014;2023-09-07T06:51:20;100228.00;;;16.18;75.88
65010;BME280;51556;50.002;22.014;2023-09-07T06:53:45;100223.48;;;16.26;75.75
65010;BME280;51556;50.002;22.014;2023-09-07T06:56:11;100224.76;;;16.34;75.37
65010;BME280;51556;50.002;22.014;2023-09-07T06:58:36;100226.83;;;16.46;75.08
65010;BME280;51556;50.002;22.014;2023-09-07T07:01:02;100228.04;;;16.57;74.74
65010;BME280;51556;50.002;22.014;2023-09-07T07:03:30;100225.46;;;16.70;74.53
65010;BME280;51556;50.002;22.014;2023-09-07T07:05:56;100228.13;;;16.79;74.32
65010;BME280;51556;50.002;22.014;2023-09-07T07:08:22;100227.44;;;16.88;74.09
65010;BME280;51556;50.002;22.014;2023-09-07T07:10:48;100229.53;;;16.99;73.94
65010;BME280;51556;50.002;22.014;2023-09-07T07:13:14;100228.03;;;17.14;73.94
65010;BME280;51556;50.002;22.014;2023-09-07T07:15:39;100231.55;;;17.24;73.49
65010;BME280;51556;50.002;22.014;2023-09-07T07:18:05;100233.51;;;17.33;73.15
65010;BME280;51556;50.002;22.014;2023-09-07T07:20:38;100234.77;;;17.43;72.69
65010;BME280;51556;50.002;22.014;2023-09-07T07:23:04;100232.95;;;17.52;72.40
65010;BME280;51556;50.002;22.014;2023-09-07T07:25:29;100231.79;;;17.59;71.86
65010;BME280;51556;50.002;22.014;2023-09-07T07:27:58;100230.51;;;17.69;71.80
65010;BME280;51556;50.002;22.014;2023-09-07T07:30:27;100228.81;;;17.84;71.64
65010;BME280;51556;50.002;22.014;2023-09-07T07:32:52;100226.69;;;18.00;71.29
65010;BME280;51556;50.002;22.014;2023-09-07T07:35:18;100227.33;;;18.11;70.76
65010;BME280;51556;50.002;22.014;2023-09-07T07:37:43;100232.42;;;18.17;70.68
65010;BME280;51556;50.002;22.014;2023-09-07T07:40:09;100229.35;;;18.26;70.37
65010;BME280;51556;50.002;22.014;2023-09-07T07:42:34;100224.84;;;18.35;70.50
65010;BME280;51556;50.002;22.014;2023-09-07T07:45:00;100231.23;;;18.48;70.15
65010;BME280;51556;50.002;22.014;2023-09-07T07:47:25;100230.55;;;18.55;69.63
65010;BME280;51556;50.002;22.014;2023-09-07T07:49:51;100229.38;;;18.62;69.55
65010;BME280;51556;50.002;22.014;2023-09-07T07:52:17;100233.66;;;18.74;69.54
65010;BME280;51556;50.002;22.014;2023-09-07T07:54:42;100233.79;;;18.79;69.39
65010;BME280;51556;50.002;22.014;2023-09-07T07:57:08;100237.05;;;18.86;69.26
65010;BME280;51556;50.002;22.014;2023-09-07T07:59:33;100235.38;;;18.95;68.95
65010;BME280;51556;50.002;22.014;2023-09-07T08:01:59;100235.66;;;19.08;68.97
65010;BME280;51556;50.002;22.014;2023-09-07T08:04:24;100237.13;;;19.22;68.70
65010;BME280;51556;50.002;22.014;2023-09-07T08:06:49;100237.73;;;19.36;68.62
65010;BME280;51556;50.002;22.014;2023-09-07T08:09:16;100238.80;;;19.51;68.73
65010;BME280;51556;50.002;22.014;2023-09-07T08:11:42;100240.62;;;19.65;68.39
65010;BME280;51556;50.002;22.014;2023-09-07T08:14:07;100237.38;;;19.76;67.91
65010;BME280;51556;50.002;22.014;2023-09-07T08:16:33;100240.41;;;19.87;67.87
65010;BME280;51556;50.002;22.014;2023-09-07T08:18:58;100240.09;;;19.97;67.77
65010;BME280;51556;50.002;22.014;2023-09-07T08:21:24;100242.12;;;20.07;67.41
65010;BME280;51556;50.002;22.014;2023-09-07T08:23:49;100243.77;;;20.17;67.19
65010;BME280;51556;50.002;22.014;2023-09-07T08:26:15;100242.10;;;20.25;66.99
65010;BME280;51556;50.002;22.014;2023-09-07T08:28:40;100236.57;;;20.35;66.93
65010;BME280;51556;50.002;22.014;2023-09-07T08:31:05;100235.69;;;20.48;66.79
65010;BME280;51556;50.002;22.014;2023-09-07T08:33:32;100232.69;;;20.61;66.64
65010;BME280;51556;50.002;22.014;2023-09-07T08:36:00;100231.20;;;20.76;66.36
65010;BME280;51556;50.002;22.014;2023-09-07T08:38:26;100227.98;;;20.89;66.53
65010;BME280;51556;50.002;22.014;2023-09-07T08:40:54;100231.19;;;21.02;66.37
65010;BME280;51556;50.002;22.014;2023-09-07T08:43:23;100230.23;;;21.13;66.26
65010;BME280;51556;50.002;22.014;2023-09-07T08:45:51;100226.81;;;21.23;65.93
65010;BME280;51556;50.002;22.014;2023-09-07T08:48:26;100232.33;;;21.37;65.50
65010;BME280;51556;50.002;22.014;2023-09-07T08:50:53;100233.92;;;21.47;65.11
65010;BME280;51556;50.002;22.014;2023-09-07T08:53:19;100233.77;;;21.56;64.75
65010;BME280;51556;50.002;22.014;2023-09-07T08:55:48;100230.59;;;21.67;64.40
65010;BME280;51556;50.002;22.014;2023-09-07T08:58:13;100230.55;;;21.81;63.87
65010;BME280;51556;50.002;22.014;2023-09-07T09:00:39;100230.46;;;21.91;63.75
65010;BME280;51556;50.002;22.014;2023-09-07T09:03:08;100224.69;;;22.01;63.55
65010;BME280;51556;50.002;22.014;2023-09-07T09:05:34;100221.59;;;22.11;62.60
65010;BME280;51556;50.002;22.014;2023-09-07T09:08:04;100217.16;;;22.23;62.17
65010;BME280;51556;50.002;22.014;2023-09-07T09:10:29;100219.94;;;22.32;61.81
65010;BME280;51556;50.002;22.014;2023-09-07T09:12:55;100220.85;;;22.41;61.23
65010;BME280;51556;50.002;22.014;2023-09-07T09:15:23;100219.91;;;22.48;59.54
65010;BME280;51556;50.002;22.014;2023-09-07T09:17:49;100222.38;;;22.57;60.39
65010;BME280;51556;50.002;22.014;2023-09-07T09:20:24;100222.33;;;22.69;60.21
65010;BME280;51556;50.002;22.014;2023-09-07T09:22:52;100219.84;;;22.81;60.16
65010;BME280;51556;50.002;22.014;2023-09-07T09:25:17;100215.66;;;22.94;60.06
65010;BME280;51556;50.002;22.014;2023-09-07T09:27:43;100216.05;;;23.04;59.92
65010;BME280;51556;50.002;22.014;2023-09-07T09:30:08;100217.52;;;23.18;59.62
65010;BME280;51556;50.002;22.014;2023-09-07T09:32:34;100217.84;;;23.27;59.06
65010;BME280;51556;50.002;22.014;2023-09-07T09:35:00;100216.45;;;23.28;57.69
65010;BME280;51556;50.002;22.014;2023-09-07T09:37:26;100214.29;;;23.28;57.63
65010;BME280;51556;50.002;22.014;2023-09-07T09:39:53;100216.46;;;23.25;57.61
65010;BME280;51556;50.002;22.014;2023-09-07T09:42:20;100214.80;;;23.21;57.51
65010;BME280;51556;50.002;22.014;2023-09-07T09:44:47;100210.88;;;23.20;58.49
65010;BME280;51556;50.002;22.014;2023-09-07T09:47:14;100211.59;;;23.31;58.82
65010;BME280;51556;50.002;22.014;2023-09-07T09:49:41;100215.90;;;23.48;58.65
65010;BME280;51556;50.002;22.014;2023-09-07T09:52:07;100212.93;;;23.64;57.60
65010;BME280;51556;50.002;22.014;2023-09-07T09:54:35;100213.11;;;23.77;57.32
65010;BME280;51556;50.002;22.014;2023-09-07T09:57:00;100213.46;;;23.93;56.16
65010;BME280;51556;50.002;22.014;2023-09-07T09:59:26;100219.61;;;24.04;55.55
65010;BME280;51556;50.002;22.014;2023-09-07T10:01:53;100217.21;;;24.12;55.78
65010;BME280;51556;50.002;22.014;2023-09-07T10:04:20;100216.05;;;24.29;55.42
65010;BME280;51556;50.002;22.014;2023-09-07T10:06:54;100218.11;;;24.44;54.54
65010;BME280;51556;50.002;22.014;2023-09-07T10:09:20;100218.61;;;24.57;53.75
65010;BME280;51556;50.002;22.014;2023-09-07T10:11:51;100221.17;;;24.67;53.76
65010;BME280;51556;50.002;22.014;2023-09-07T10:14:17;100218.21;;;24.79;53.46
65010;BME280;51556;50.002;22.014;2023-09-07T10:16:53;100216.33;;;24.87;52.70
65010;BME280;51556;50.002;22.014;2023-09-07T10:19:22;100215.20;;;24.85;51.69
65010;BME280;51556;50.002;22.014;2023-09-07T10:21:48;100212.70;;;24.80;52.13
65010;BME280;51556;50.002;22.014;2023-09-07T10:24:28;100213.91;;;24.78;52.18
65010;BME280;51556;50.002;22.014;2023-09-07T10:27:01;100209.13;;;24.80;52.32
65010;BME280;51556;50.002;22.014;2023-09-07T10:29:27;100212.40;;;24.92;52.82
65010;BME280;51556;50.002;22.014;2023-09-07T10:31:53;100209.30;;;25.08;53.25
65010;BME280;51556;50.002;22.014;2023-09-07T10:34:18;100213.11;;;25.24;51.99
65010;BME280;51556;50.002;22.014;2023-09-07T10:36:45;100211.77;;;25.27;51.06
65010;BME280;51556;50.002;22.014;2023-09-07T10:39:11;100210.75;;;25.27;50.60
65010;BME280;51556;50.002;22.014;2023-09-07T10:41:45;100212.90;;;25.20;50.20
65010;BME280;51556;50.002;22.014;2023-09-07T10:44:11;100210.17;;;25.23;50.49
65010;BME280;51556;50.002;22.014;2023-09-07T10:46:37;100206.75;;;25.23;49.85
65010;BME280;51556;50.002;22.014;2023-09-07T10:49:07;100207.36;;;25.29;50.59
65010;BME280;51556;50.002;22.014;2023-09-07T10:51:33;100208.20;;;25.52;50.76
65010;BME280;51556;50.002;22.014;2023-09-07T10:54:22;100204.42;;;25.76;49.23
65010;BME280;51556;50.002;22.014;2023-09-07T10:56:49;100204.73;;;26.00;48.94
65010;BME280;51556;50.002;22.014;2023-09-07T10:59:16;100197.89;;;26.24;48.58
65010;BME280;51556;50.002;22.014;2023-09-07T11:01:43;100198.91;;;26.46;48.13
65010;BME280;51556;50.002;22.014;2023-09-07T11:04:09;100201.48;;;26.59;46.42
65010;BME280;51556;50.002;22.014;2023-09-07T11:06:37;100205.23;;;26.66;47.13
65010;BME280;51556;50.002;22.014;2023-09-07T11:09:06;100200.98;;;26.83;46.88
65010;BME280;51556;50.002;22.014;2023-09-07T11:11:36;100200.52;;;26.94;46.56
65010;BME280;51556;50.002;22.014;2023-09-07T11:14:03;100200.85;;;26.97;46.37
65010;BME280;51556;50.002;22.014;2023-09-07T11:16:30;100203.70;;;26.92;46.01
65010;BME280;51556;50.002;22.014;2023-09-07T11:18:55;100200.95;;;26.98;46.35
65010;BME280;51556;50.002;22.014;2023-09-07T11:21:21;100200.86;;;27.08;46.19
65010;BME280;51556;50.002;22.014;2023-09-07T11:23:47;100200.58;;;27.24;46.65
65010;BME280;51556;50.002;22.014;2023-09-07T11:26:14;100197.30;;;27.44;46.31
65010;BME280;51556;50.002;22.014;2023-09-07T11:28:44;100201.33;;;27.64;45.25
65010;BME280;51556;50.002;22.014;2023-09-07T11:31:10;100200.60;;;27.81;44.47
65010;BME280;51556;50.002;22.014;2023-09-07T11:33:35;100202.23;;;27.93;44.59
65010;BME280;51556;50.002;22.014;2023-09-07T11:36:00;100201.31;;;28.07;43.91
65010;BME280;51556;50.002;22.014;2023-09-07T11:38:29;100198.37;;;28.18;43.89
65010;BME280;51556;50.002;22.014;2023-09-07T11:40:59;100194.02;;;28.31;43.86
65010;BME280;51556;50.002;22.014;2023-09-07T11:43:25;100195.41;;;28.40;44.05
65010;BME280;51556;50.002;22.014;2023-09-07T11:45:50;100196.71;;;28.42;43.50
65010;BME280;51556;50.002;22.014;2023-09-07T11:48:16;100195.08;;;28.48;42.89
65010;BME280;51556;50.002;22.014;2023-09-07T11:50:41;100187.94;;;28.61;43.03
65010;BME280;51556;50.002;22.014;2023-09-07T11:53:07;100186.16;;;28.75;42.51
65010;BME280;51556;50.002;22.014;2023-09-07T11:55:35;100185.03;;;28.78;42.04
65010;BME280;51556;50.002;22.014;2023-09-07T11:58:02;100186.98;;;28.87;41.86
65010;BME280;51556;50.002;22.014;2023-09-07T12:00:27;100185.98;;;29.00;42.35
65010;BME280;51556;50.002;22.014;2023-09-07T12:02:54;100184.25;;;29.21;41.65
65010;BME280;51556;50.002;22.014;2023-09-07T12:05:20;100184.11;;;29.31;41.06
65010;BME280;51556;50.002;22.014;2023-09-07T12:07:45;100179.30;;;29.38;41.09
65010;BME280;51556;50.002;22.014;2023-09-07T12:10:11;100184.34;;;29.44;40.62
65010;BME280;51556;50.002;22.014;2023-09-07T12:12:42;100185.00;;;29.57;40.00
65010;BME280;51556;50.002;22.014;2023-09-07T12:15:08;100179.91;;;29.61;39.47
65010;BME280;51556;50.002;22.014;2023-09-07T12:17:34;100178.11;;;29.86;40.06
65010;BME280;51556;50.002;22.014;2023-09-07T12:20:00;100178.17;;;30.09;38.57
65010;BME280;51556;50.002;22.014;2023-09-07T12:22:26;100173.50;;;30.16;37.79
65010;BME280;51556;50.002;22.014;2023-09-07T12:24:52;100174.67;;;30.30;38.79
65010;BME280;51556;50.002;22.014;2023-09-07T12:27:17;100172.94;;;30.67;38.11
65010;BME280;51556;50.002;22.014;2023-09-07T12:29:44;100171.23;;;30.85;36.96
65010;BME280;51556;50.002;22.014;2023-09-07T12:32:09;100173.81;;;31.05;36.40
65010;BME280;51556;50.002;22.014;2023-09-07T12:34:35;100177.37;;;31.17;36.75
65010;BME280;51556;50.002;22.014;2023-09-07T12:37:01;100172.64;;;31.46;35.80
65010;BME280;51556;50.002;22.014;2023-09-07T12:39:29;100173.34;;;31.83;35.52